EDFM

Mannheim City Airport

Airport
ICAO code
EDFM
Summary
ICAO Region
EUR
ICAO Territory
Location

Mannheim, Germany,

Coordinates
49° 28' 21" N , 8° 30' 56" E
KCC
Metar
Observation
EDFM 031920Z 25012KT 9999 FEW042 BKN048 09/06 Q1028
Station
Baden Wurttemberg, Neuostheim
Date/Time
2023-02-03 19:20:00
Wind direction
250°
Wind speed
12 kts
Lowest cloud amount
few clouds
Temperature
9°C
Dew point
6°C
Humidity
81%
QNH
1028 hPa
Weather condition
n/a

Description

Airport serving Mannheim, Germany.

Climatology

Temperate Marine climate/Oceanic climate (Köppen climate classification Cfb) - Moderately cool summer and comparatively warm winter.

Runways

Designator Length Width Surface Rops
09L/27R 700 30 GRS No/No
9/27 1066 25 ASP Yes/Yes

Airport map

Aerial View

Airport accidents

SKYbrary Partners:

Safety knowledge contributed by: